Time;durP1;ratioP1;P1;durP2;ratioP2;P2;SDS_P1;SDS_P2;PMS_P1;PMS_P2;Temp;Humidity;BMP_temperature;BMP_pressure;BME280_temperature;BME280_humidity;BME280_pressure;Samples;Min_cycle;Max_cycle;Signal;HPM_P1;HPM_P2
2023/04/29 00:00:43;;;;;;;30.00;18.75;;;9.20;99.90;;;;;;4879677;29;20049;-81
2023/04/29 00:03:10;;;;;;;29.25;19.10;;;9.20;99.90;;;;;;4863446;29;20105;-81
2023/04/29 00:05:36;;;;;;;30.25;19.27;;;9.20;99.90;;;;;;4864288;29;20057;-81
2023/04/29 00:08:03;;;;;;;32.42;19.15;;;9.20;99.90;;;;;;4863469;29;20049;-81
2023/04/29 00:10:30;;;;;;;32.17;18.90;;;9.20;99.90;;;;;;4863674;29;20057;-80
2023/04/29 00:12:57;;;;;;;30.02;18.85;;;9.20;99.90;;;;;;4879123;29;20072;-81
2023/04/29 00:15:23;;;;;;;29.73;18.30;;;9.20;99.90;;;;;;4863900;29;20132;-80
2023/04/29 00:17:50;;;;;;;28.92;18.10;;;9.20;99.90;;;;;;4863556;29;20140;-81
2023/04/29 00:20:17;;;;;;;28.33;18.25;;;9.20;99.90;;;;;;4875071;29;20052;-81
2023/04/29 00:22:44;;;;;;;30.30;18.95;;;9.20;99.90;;;;;;4860530;29;20078;-81
2023/04/29 00:25:11;;;;;;;32.45;18.38;;;9.20;99.90;;;;;;4860073;29;20054;-81
2023/04/29 00:27:38;;;;;;;31.60;18.92;;;9.10;99.90;;;;;;4860078;29;20087;-81
2023/04/29 00:30:07;;;;;;;32.72;18.65;;;9.10;99.90;;;;;;4860306;29;20120;-81
2023/04/29 00:32:34;;;;;;;33.53;19.25;;;9.10;99.90;;;;;;4845348;29;20034;-81
2023/04/29 00:35:01;;;;;;;31.00;18.63;;;9.10;99.90;;;;;;4830361;29;20521;-81
2023/04/29 00:37:27;;;;;;;34.97;19.42;;;9.10;99.90;;;;;;4829982;29;20122;-81
2023/04/29 00:39:54;;;;;;;38.55;18.58;;;9.00;99.90;;;;;;4834487;29;20038;-81
2023/04/29 00:42:21;;;;;;;35.17;19.42;;;9.00;99.90;;;;;;4862969;29;20037;-81
2023/04/29 00:44:47;;;;;;;29.98;18.15;;;9.00;99.90;;;;;;4863123;29;20052;-81
2023/04/29 00:47:14;;;;;;;32.15;17.75;;;8.90;99.90;;;;;;4862945;29;20133;-81
2023/04/29 00:49:41;;;;;;;29.63;16.98;;;9.00;99.90;;;;;;4878532;29;20056;-81
2023/04/29 00:52:10;;;;;;;30.95;16.42;;;8.90;99.90;;;;;;4862991;29;20048;-80
2023/04/29 00:54:38;;;;;;;27.83;16.40;;;8.90;99.90;;;;;;4878628;29;20072;-81
2023/04/29 00:57:06;;;;;;;29.08;16.52;;;8.80;99.90;;;;;;4863318;29;20059;-81
2023/04/29 00:59:33;;;;;;;38.05;17.63;;;8.80;99.90;;;;;;4878358;29;20064;-81
2023/04/29 01:02:03;;;;;;;35.00;16.50;;;8.80;99.90;;;;;;4878124;29;20506;-81
2023/04/29 01:04:30;;;;;;;26.38;16.00;;;8.80;99.90;;;;;;4893291;29;20089;-81
2023/04/29 01:07:26;;;;;;;27.58;14.88;;;8.80;99.90;;;;;;4862627;29;20064;-81
2023/04/29 01:10:18;;;;;;;29.90;15.40;;;8.80;99.90;;;;;;4877464;29;20052;-81
2023/04/29 01:13:09;;;;;;;28.17;14.32;;;8.80;99.90;;;;;;4877963;29;20052;-81
2023/04/29 01:16:10;;;;;;;26.02;14.45;;;8.80;99.90;;;;;;4872557;29;20076;-81
2023/04/29 01:18:42;;;;;;;25.92;14.43;;;8.80;99.90;;;;;;4877761;29;20096;-81
2023/04/29 01:21:09;;;;;;;29.55;13.75;;;8.80;99.90;;;;;;4874704;29;20046;-81
2023/04/29 01:23:36;;;;;;;28.02;14.00;;;8.80;99.90;;;;;;4844121;29;20053;-81
2023/04/29 01:26:04;;;;;;;28.20;14.50;;;8.80;99.90;;;;;;4844271;29;20423;-81
2023/04/29 01:28:34;;;;;;;29.50;14.57;;;8.80;99.90;;;;;;4859255;29;20046;-81
2023/04/29 01:31:03;;;;;;;26.42;14.50;;;8.80;99.90;;;;;;4859336;29;20042;-80
2023/04/29 01:34:02;;;;;;;28.05;14.88;;;8.80;99.90;;;;;;4859054;29;20779;-81
2023/04/29 01:36:44;;;;;;;29.05;15.23;;;8.80;99.90;;;;;;4858683;29;20054;-81
2023/04/29 01:39:24;;;;;;;28.55;15.00;;;8.70;99.90;;;;;;4859687;29;20050;-81
2023/04/29 01:42:07;;;;;;;26.83;13.68;;;8.70;99.90;;;;;;4859264;29;20046;-81
2023/04/29 01:44:35;;;;;;;31.75;14.65;;;8.70;99.90;;;;;;4872694;29;20060;-81
2023/04/29 01:47:02;;;;;;;27.27;14.55;;;8.70;99.90;;;;;;4877593;29;20045;-81
2023/04/29 01:49:29;;;;;;;28.00;13.57;;;8.70;99.90;;;;;;4877142;29;20045;-81
2023/04/29 01:51:56;;;;;;;27.52;14.52;;;8.70;99.90;;;;;;4859062;29;20038;-81
2023/04/29 01:54:23;;;;;;;30.08;13.70;;;8.70;99.90;;;;;;4843546;29;20106;-81
2023/04/29 01:56:50;;;;;;;31.33;13.52;;;8.70;99.90;;;;;;4843789;29;20049;-81
2023/04/29 01:59:17;;;;;;;28.05;13.10;;;8.70;99.90;;;;;;4858807;29;20170;-80
2023/04/29 02:01:44;;;;;;;27.42;13.68;;;8.70;99.90;;;;;;4863604;29;20072;-81
2023/04/29 02:04:10;;;;;;;30.50;13.48;;;8.70;99.90;;;;;;4861909;29;20469;-80
2023/04/29 02:06:37;;;;;;;29.30;14.02;;;8.60;99.90;;;;;;4861766;29;20117;-81
2023/04/29 02:09:04;;;;;;;26.33;13.57;;;8.70;99.90;;;;;;4862249;29;20076;-81
2023/04/29 02:11:31;;;;;;;23.02;13.13;;;8.70;99.90;;;;;;4861453;29;20065;-80
2023/04/29 02:13:57;;;;;;;27.23;13.50;;;8.70;99.90;;;;;;4862010;29;20045;-81
2023/04/29 02:16:24;;;;;;;27.80;14.02;;;8.70;99.90;;;;;;4861526;29;20104;-80
2023/04/29 02:18:51;;;;;;;29.25;14.60;;;8.60;99.90;;;;;;4861461;29;20392;-81
2023/04/29 02:21:17;;;;;;;30.65;14.68;;;8.60;99.90;;;;;;4862007;29;20056;-81
2023/04/29 02:23:44;;;;;;;33.53;14.98;;;8.60;99.90;;;;;;4876516;29;20132;-81
2023/04/29 02:26:12;;;;;;;25.23;13.98;;;8.60;99.90;;;;;;4861790;29;20717;-81
2023/04/29 02:28:39;;;;;;;30.52;14.85;;;8.60;99.90;;;;;;4861903;29;20041;-81
2023/04/29 02:31:06;;;;;;;33.83;15.18;;;8.60;99.90;;;;;;4877024;29;20096;-81
2023/04/29 02:33:32;;;;;;;25.98;13.98;;;8.60;99.90;;;;;;4861632;29;20053;-81
2023/04/29 02:35:59;;;;;;;30.50;14.32;;;8.60;99.90;;;;;;4861766;29;20052;-81
2023/04/29 02:38:26;;;;;;;31.80;14.55;;;8.60;99.90;;;;;;4876716;29;20052;-81
2023/04/29 02:40:52;;;;;;;24.42;13.10;;;8.60;99.90;;;;;;4861837;29;20092;-80
2023/04/29 02:43:19;;;;;;;27.00;13.63;;;8.70;99.90;;;;;;4861262;29;20042;-81
2023/04/29 02:45:46;;;;;;;28.75;12.50;;;8.60;99.90;;;;;;4861426;29;20073;-81
2023/04/29 02:48:12;;;;;;;25.85;12.95;;;8.60;99.90;;;;;;4861570;29;20050;-81
2023/04/29 02:50:39;;;;;;;25.60;12.95;;;8.50;99.90;;;;;;4876337;29;20136;-81
2023/04/29 02:53:06;;;;;;;32.47;13.73;;;8.60;99.90;;;;;;4876663;29;20056;-81
2023/04/29 02:55:33;;;;;;;30.10;12.55;;;8.50;99.90;;;;;;4861572;29;20060;-81
2023/04/29 02:57:59;;;;;;;26.92;13.75;;;8.60;99.90;;;;;;4861867;29;20050;-81
2023/04/29 03:00:26;;;;;;;22.00;11.27;;;8.60;99.90;;;;;;4845991;29;20056;-81
2023/04/29 03:02:53;;;;;;;28.67;13.43;;;8.50;99.90;;;;;;4846363;29;20049;-81
2023/04/29 03:05:19;;;;;;;25.50;12.35;;;8.60;99.90;;;;;;4846327;29;20117;-81
2023/04/29 03:07:46;;;;;;;24.15;10.93;;;8.50;99.90;;;;;;4861072;29;20050;-81
2023/04/29 03:10:13;;;;;;;24.63;11.95;;;8.50;99.90;;;;;;4861121;29;20096;-81
2023/04/29 03:12:39;;;;;;;25.20;11.35;;;8.50;99.90;;;;;;4845987;29;20049;-81
2023/04/29 03:15:07;;;;;;;22.98;11.70;;;8.50;99.90;;;;;;4845996;29;20049;-81
2023/04/29 03:17:33;;;;;;;26.63;11.75;;;8.50;99.90;;;;;;4875894;29;20045;-81
2023/04/29 03:20:00;;;;;;;22.40;11.20;;;8.50;99.90;;;;;;4861263;29;20467;-81
2023/04/29 03:22:27;;;;;;;20.88;11.05;;;8.50;99.90;;;;;;4861476;29;20046;-81
2023/04/29 03:24:53;;;;;;;26.60;11.43;;;8.50;99.90;;;;;;4861025;29;20041;-81
2023/04/29 03:27:21;;;;;;;23.63;10.55;;;8.60;99.90;;;;;;4861090;29;20045;-81
2023/04/29 03:29:48;;;;;;;28.88;11.10;;;8.50;99.90;;;;;;4863210;29;20044;-81
2023/04/29 03:32:14;;;;;;;24.33;11.38;;;8.50;99.90;;;;;;4864856;29;20104;-81
2023/04/29 03:34:41;;;;;;;23.08;11.15;;;8.50;99.90;;;;;;4879439;29;20037;-81
2023/04/29 03:37:08;;;;;;;24.35;10.95;;;8.60;99.90;;;;;;4861442;29;20492;-81
2023/04/29 03:39:35;;;;;;;26.50;11.35;;;8.60;99.90;;;;;;4845925;29;20064;-81
2023/04/29 03:42:01;;;;;;;23.20;11.65;;;8.60;99.90;;;;;;4846359;29;20049;-81
2023/04/29 03:44:28;;;;;;;22.58;11.52;;;8.60;99.90;;;;;;4846349;29;20398;-81
2023/04/29 03:46:55;;;;;;;26.55;11.50;;;8.60;99.90;;;;;;4875917;29;20061;-81
2023/04/29 03:49:22;;;;;;;24.77;12.13;;;8.60;99.90;;;;;;4876086;29;20064;-81
2023/04/29 03:51:49;;;;;;;26.20;11.50;;;8.60;99.90;;;;;;4860781;29;20511;-81
2023/04/29 03:54:16;;;;;;;25.23;11.82;;;8.60;99.90;;;;;;4845887;29;20045;-81
2023/04/29 03:56:43;;;;;;;23.75;11.07;;;8.60;99.90;;;;;;4884857;29;20403;-81
2023/04/29 03:59:10;;;;;;;25.63;10.35;;;8.60;99.90;;;;;;4864086;29;20037;-81
2023/04/29 04:01:36;;;;;;;25.95;10.88;;;8.60;99.90;;;;;;4879361;29;20071;-81
2023/04/29 04:04:03;;;;;;;20.55;11.25;;;8.60;99.90;;;;;;4879588;29;20103;-81
2023/04/29 04:06:30;;;;;;;24.85;11.32;;;8.60;99.90;;;;;;4863779;29;20042;-81
2023/04/29 04:08:57;;;;;;;21.42;11.23;;;8.60;99.90;;;;;;4863735;29;20057;-81
2023/04/29 04:11:24;;;;;;;21.83;11.35;;;8.60;99.90;;;;;;4863480;29;20061;-81
2023/04/29 04:13:50;;;;;;;27.50;12.35;;;8.60;99.90;;;;;;4863030;29;20046;-81
2023/04/29 04:16:17;;;;;;;26.63;12.52;;;8.60;99.90;;;;;;4878724;29;20448;-81
2023/04/29 04:18:44;;;;;;;27.50;11.43;;;8.60;99.90;;;;;;4846587;29;20049;-81
2023/04/29 04:21:11;;;;;;;23.08;11.75;;;8.50;99.90;;;;;;4859896;29;20081;-81
2023/04/29 04:23:42;;;;;;;26.38;13.45;;;8.50;99.90;;;;;;4859888;29;20041;-81
2023/04/29 04:26:09;;;;;;;30.17;13.38;;;8.60;99.90;;;;;;4860270;29;20113;-81
2023/04/29 04:28:36;;;;;;;28.85;13.63;;;8.60;99.90;;;;;;4859869;29;20046;-81
2023/04/29 04:31:04;;;;;;;26.77;13.45;;;8.60;99.90;;;;;;4859704;29;20045;-81
2023/04/29 04:33:31;;;;;;;30.05;14.20;;;8.60;99.90;;;;;;4860488;29;20054;-81
2023/04/29 04:35:57;;;;;;;29.52;14.88;;;8.60;99.90;;;;;;4859936;29;20088;-81
2023/04/29 04:38:25;;;;;;;27.25;13.20;;;8.60;99.90;;;;;;4863219;29;20041;-81
2023/04/29 04:40:51;;;;;;;26.45;13.45;;;8.50;99.90;;;;;;4878193;29;20136;-81
2023/04/29 04:43:18;;;;;;;23.67;12.73;;;8.60;99.90;;;;;;4878753;29;20185;-81
2023/04/29 04:45:45;;;;;;;25.85;13.00;;;8.50;99.90;;;;;;4863299;29;20048;-81
2023/04/29 04:48:12;;;;;;;25.23;12.52;;;8.60;99.90;;;;;;4862996;29;20064;-81
2023/04/29 04:50:38;;;;;;;23.13;12.23;;;8.50;99.90;;;;;;4863246;29;20132;-81
2023/04/29 04:53:05;;;;;;;25.27;12.70;;;8.60;99.90;;;;;;4863284;29;20044;-81
2023/04/29 04:55:35;;;;;;;27.83;12.80;;;8.60;99.90;;;;;;4863145;29;20049;-81
2023/04/29 04:58:02;;;;;;;22.02;12.20;;;8.60;99.90;;;;;;4863165;29;20056;-81
2023/04/29 05:00:28;;;;;;;20.42;12.52;;;8.60;99.90;;;;;;4878356;29;20414;-81
2023/04/29 05:02:55;;;;;;;22.35;12.20;;;8.60;99.90;;;;;;4862974;29;20047;-80
2023/04/29 05:05:22;;;;;;;32.08;12.30;;;8.60;99.90;;;;;;4863264;29;20132;-81
2023/04/29 05:07:48;;;;;;;22.25;11.65;;;8.60;99.90;;;;;;4862627;29;20041;-81
2023/04/29 05:10:15;;;;;;;22.90;12.13;;;8.60;99.90;;;;;;4862665;29;20060;-81
2023/04/29 05:12:42;;;;;;;26.63;11.52;;;8.60;99.90;;;;;;4877964;29;20045;-81
2023/04/29 05:15:09;;;;;;;22.55;11.10;;;8.60;99.90;;;;;;4862932;29;20041;-81
2023/04/29 05:17:36;;;;;;;20.17;10.57;;;8.60;99.90;;;;;;4862768;29;20105;-81
2023/04/29 05:20:03;;;;;;;21.25;10.70;;;8.60;99.90;;;;;;4877316;29;20072;-81
2023/04/29 05:22:29;;;;;;;20.08;10.82;;;8.70;99.90;;;;;;4862591;29;20053;-81
2023/04/29 05:25:01;;;;;;;20.92;10.07;;;8.70;99.90;;;;;;4877932;29;20105;-81
2023/04/29 05:27:28;;;;;;;22.75;10.75;;;8.70;99.90;;;;;;4863223;29;20073;-81
2023/04/29 05:29:55;;;;;;;21.65;10.07;;;8.70;99.90;;;;;;4877245;29;20072;-81
2023/04/29 05:32:22;;;;;;;16.30;9.23;;;8.70;99.90;;;;;;4847370;29;20495;-81
2023/04/29 05:34:49;;;;;;;16.25;9.32;;;8.70;99.90;;;;;;4862121;29;20102;-81
2023/04/29 05:37:16;;;;;;;17.50;10.02;;;8.70;99.90;;;;;;4862637;29;20562;-81
2023/04/29 05:39:43;;;;;;;21.70;10.52;;;8.70;99.90;;;;;;4877420;29;20046;-81
2023/04/29 05:42:09;;;;;;;18.77;9.95;;;8.80;99.90;;;;;;4847168;29;20045;-81
2023/04/29 05:44:36;;;;;;;23.67;10.05;;;8.80;99.90;;;;;;4862350;29;20064;-81
2023/04/29 05:47:03;;;;;;;18.55;10.02;;;8.80;99.90;;;;;;4861868;29;20112;-81
2023/04/29 05:49:29;;;;;;;24.98;9.85;;;8.80;99.90;;;;;;4846938;29;20094;-81
2023/04/29 05:51:56;;;;;;;20.58;9.55;;;8.80;99.90;;;;;;4859243;29;20046;-81
2023/04/29 05:54:23;;;;;;;21.98;10.98;;;8.80;99.90;;;;;;4861793;29;20038;-81
2023/04/29 05:56:50;;;;;;;20.13;11.23;;;8.80;99.90;;;;;;4861948;29;20094;-81
2023/04/29 05:59:16;;;;;;;18.90;9.25;;;8.80;99.90;;;;;;4892641;29;20555;-81
2023/04/29 06:01:43;;;;;;;19.70;9.77;;;8.90;99.90;;;;;;4862179;29;20049;-81
2023/04/29 06:04:10;;;;;;;17.45;9.57;;;8.90;99.90;;;;;;4876925;29;20049;-81
2023/04/29 06:06:37;;;;;;;15.15;8.70;;;8.90;99.90;;;;;;4862020;29;20529;-81
2023/04/29 06:09:04;;;;;;;14.63;8.38;;;8.90;99.90;;;;;;4861677;29;20041;-81
2023/04/29 06:11:31;;;;;;;15.77;8.73;;;8.90;99.90;;;;;;4876667;29;20061;-81
2023/04/29 06:13:57;;;;;;;15.57;8.50;;;8.90;99.90;;;;;;4861746;29;20106;-81
2023/04/29 06:16:24;;;;;;;16.45;8.18;;;9.00;99.90;;;;;;4861628;29;20037;-81
2023/04/29 06:18:51;;;;;;;15.25;7.72;;;9.00;99.90;;;;;;4846364;29;20460;-80
2023/04/29 06:21:17;;;;;;;14.77;8.00;;;9.00;99.90;;;;;;4846469;29;20129;-81
2023/04/29 06:23:45;;;;;;;17.42;7.53;;;9.10;99.90;;;;;;4846595;29;20045;-81
2023/04/29 06:26:12;;;;;;;13.25;7.68;;;9.10;99.90;;;;;;4861478;29;20037;-81
2023/04/29 06:28:39;;;;;;;16.08;7.85;;;9.20;99.90;;;;;;4847171;29;20136;-81
2023/04/29 06:31:06;;;;;;;17.52;8.30;;;9.30;99.90;;;;;;4862224;29;20132;-81
2023/04/29 06:33:33;;;;;;;16.73;7.88;;;9.30;99.90;;;;;;4846336;29;20092;-81
2023/04/29 06:35:59;;;;;;;19.33;7.55;;;9.40;99.90;;;;;;4861462;29;20045;-81
2023/04/29 06:38:26;;;;;;;14.38;7.90;;;9.40;99.90;;;;;;4882592;29;20451;-81
2023/04/29 06:40:53;;;;;;;15.15;7.35;;;9.40;99.90;;;;;;4879864;29;20101;-81
2023/04/29 06:43:19;;;;;;;13.80;7.22;;;9.60;99.90;;;;;;4868097;29;20057;-82
2023/04/29 06:45:46;;;;;;;12.90;7.07;;;9.60;99.90;;;;;;4876466;29;20053;-82
2023/04/29 06:48:13;;;;;;;14.18;6.90;;;9.60;99.90;;;;;;4861506;29;20128;-82
2023/04/29 06:50:48;;;;;;;15.13;7.40;;;9.70;99.90;;;;;;4861717;29;20077;-81
2023/04/29 06:53:15;;;;;;;15.65;7.18;;;9.70;99.90;;;;;;4867547;29;20038;-81
2023/04/29 06:55:41;;;;;;;15.02;7.28;;;9.90;99.90;;;;;;4862079;29;20144;-82
2023/04/29 06:58:08;;;;;;;12.63;6.60;;;9.90;99.90;;;;;;4865002;29;20114;-81
2023/04/29 07:00:35;;;;;;;11.43;7.00;;;10.00;99.90;;;;;;4879007;29;20139;-82
2023/04/29 07:03:02;;;;;;;16.05;7.30;;;10.00;99.90;;;;;;4891959;29;20053;-81
2023/04/29 07:05:29;;;;;;;13.93;6.93;;;10.00;99.90;;;;;;4888111;29;20045;-81
2023/04/29 07:07:56;;;;;;;10.07;6.25;;;10.00;99.90;;;;;;4867401;29;20414;-82
2023/04/29 07:10:23;;;;;;;15.77;7.78;;;10.00;99.90;;;;;;4898034;29;20045;-81
2023/04/29 07:12:49;;;;;;;14.75;6.75;;;10.00;99.90;;;;;;4878041;29;20510;-82
2023/04/29 07:15:16;;;;;;;15.57;7.22;;;10.00;99.90;;;;;;4866097;29;20048;-82
2023/04/29 07:17:43;;;;;;;15.65;7.25;;;10.10;99.90;;;;;;4864765;29;20136;-82
2023/04/29 07:20:10;;;;;;;12.90;6.68;;;10.20;99.90;;;;;;4864199;29;20076;-82
2023/04/29 07:22:37;;;;;;;12.65;7.07;;;10.40;99.90;;;;;;4864937;29;20056;-81
2023/04/29 07:25:04;;;;;;;11.43;6.38;;;10.50;99.90;;;;;;4864293;29;20041;-81
2023/04/29 07:27:34;;;;;;;12.57;6.95;;;10.70;99.90;;;;;;4861162;29;20496;-81
2023/04/29 07:30:02;;;;;;;9.93;5.97;;;10.70;99.90;;;;;;4861224;29;20414;-81
2023/04/29 07:32:30;;;;;;;12.68;6.78;;;10.60;99.90;;;;;;4876896;29;20070;-81
2023/04/29 07:35:00;;;;;;;11.50;6.13;;;10.70;99.90;;;;;;4861671;29;20037;-81
2023/04/29 07:37:27;;;;;;;12.02;6.75;;;10.70;99.90;;;;;;4860686;29;20046;-81
2023/04/29 07:39:53;;;;;;;13.23;6.75;;;10.80;99.90;;;;;;4883083;29;20047;-81
2023/04/29 07:42:20;;;;;;;14.38;7.22;;;10.80;99.90;;;;;;4882762;29;20418;-81
2023/04/29 07:44:47;;;;;;;12.35;7.05;;;10.90;99.90;;;;;;4867505;29;20045;-81
2023/04/29 07:47:13;;;;;;;13.02;7.20;;;11.00;99.90;;;;;;4872959;29;20097;-81
2023/04/29 07:49:40;;;;;;;13.98;7.30;;;11.10;99.90;;;;;;4864260;29;20044;-81
2023/04/29 07:52:08;;;;;;;11.95;6.22;;;11.10;99.90;;;;;;4864644;29;20563;-81
2023/04/29 07:54:35;;;;;;;17.45;6.80;;;11.20;99.90;;;;;;4864761;29;20041;-81
2023/04/29 07:57:03;;;;;;;9.77;5.75;;;11.30;99.90;;;;;;4864575;29;20045;-81
2023/04/29 07:59:33;;;;;;;11.75;6.45;;;11.40;99.90;;;;;;4864268;29;20467;-81
2023/04/29 08:02:00;;;;;;;10.07;5.68;;;11.40;99.90;;;;;;4894926;29;20484;-81
2023/04/29 08:04:27;;;;;;;12.65;6.18;;;11.40;99.90;;;;;;4862708;29;20136;-82
2023/04/29 08:06:53;;;;;;;11.80;5.88;;;11.50;99.90;;;;;;4863498;29;20499;-82
2023/04/29 08:09:20;;;;;;;7.38;5.32;;;11.50;99.90;;;;;;4878587;29;20892;-81
2023/04/29 08:11:47;;;;;;;9.88;5.32;;;11.60;99.90;;;;;;4877385;29;20057;-81
2023/04/29 08:14:13;;;;;;;9.50;5.10;;;11.60;99.90;;;;;;4865561;29;20526;-81
2023/04/29 08:16:40;;;;;;;11.73;6.28;;;11.70;99.90;;;;;;4869437;29;20052;-81
2023/04/29 08:19:07;;;;;;;14.65;5.15;;;11.80;99.90;;;;;;4872880;29;20045;-81
2023/04/29 08:21:33;;;;;;;10.57;5.32;;;11.90;99.90;;;;;;4848590;29;20046;-80
2023/04/29 08:24:00;;;;;;;10.63;5.13;;;11.90;99.90;;;;;;4874773;29;20053;-80
2023/04/29 08:26:27;;;;;;;12.75;5.30;;;11.90;99.90;;;;;;4882785;29;20859;-81
2023/04/29 08:28:53;;;;;;;10.50;5.05;;;11.90;99.90;;;;;;4871543;29;20055;-81
2023/04/29 08:31:21;;;;;;;11.65;4.97;;;12.00;99.90;;;;;;4861877;29;20045;-81
2023/04/29 08:33:48;;;;;;;9.15;5.10;;;12.20;99.90;;;;;;4859759;29;20133;-81
2023/04/29 08:36:14;;;;;;;10.68;5.55;;;12.20;99.90;;;;;;4864467;29;20089;-80
2023/04/29 08:38:41;;;;;;;13.25;5.13;;;12.30;99.90;;;;;;4863095;29;20419;-81
2023/04/29 08:41:08;;;;;;;11.93;5.18;;;12.40;99.90;;;;;;4862726;29;20041;-81
2023/04/29 08:43:41;;;;;;;10.63;5.00;;;12.40;99.90;;;;;;4878599;29;20189;-81
2023/04/29 08:46:09;;;;;;;15.93;5.20;;;12.40;99.90;;;;;;4864061;29;20051;-81
2023/04/29 08:48:38;;;;;;;10.68;5.00;;;12.60;99.90;;;;;;4877748;29;20053;-81
2023/04/29 08:51:06;;;;;;;10.30;5.07;;;12.50;99.90;;;;;;4863286;29;20045;-80
2023/04/29 08:53:33;;;;;;;10.95;5.20;;;12.60;99.90;;;;;;4858640;29;20041;-80
2023/04/29 08:56:07;;;;;;;10.98;5.32;;;12.70;99.90;;;;;;4859622;29;20054;-80
2023/04/29 08:58:37;;;;;;;11.18;5.07;;;12.70;99.90;;;;;;4874622;29;20511;-80
2023/04/29 09:01:07;;;;;;;10.80;5.15;;;12.70;99.90;;;;;;4874060;29;20132;-80
2023/04/29 09:03:43;;;;;;;12.48;5.20;;;12.70;99.90;;;;;;4868862;29;20452;-80
2023/04/29 09:06:13;;;;;;;12.95;4.90;;;12.80;99.90;;;;;;4877745;29;20088;-80
2023/04/29 09:08:40;;;;;;;9.48;5.28;;;12.80;99.90;;;;;;4877585;29;20136;-80
2023/04/29 09:11:11;;;;;;;10.77;5.00;;;12.80;99.90;;;;;;4861991;29;20060;-80
2023/04/29 09:13:38;;;;;;;10.13;5.40;;;12.90;99.90;;;;;;4870622;29;20049;-81
2023/04/29 09:16:10;;;;;;;11.57;5.57;;;13.00;99.90;;;;;;4853267;29;20555;-80
2023/04/29 09:18:48;;;;;;;10.98;4.72;;;13.10;99.90;;;;;;4876893;29;20517;-80
2023/04/29 09:21:26;;;;;;;12.05;5.53;;;13.10;99.90;;;;;;4908744;29;20509;-81
2023/04/29 09:23:57;;;;;;;10.35;5.50;;;13.20;99.90;;;;;;4880089;29;20052;-80
2023/04/29 09:26:25;;;;;;;11.07;5.22;;;13.30;99.90;;;;;;4876917;29;20056;-80
2023/04/29 09:29:12;;;;;;;10.02;5.03;;;13.30;99.90;;;;;;4881146;29;20487;-80
2023/04/29 09:31:40;;;;;;;9.93;4.80;;;13.40;99.90;;;;;;4880103;29;20045;-81
2023/04/29 09:34:08;;;;;;;13.75;4.50;;;13.40;99.90;;;;;;4882801;29;20045;-81
2023/04/29 09:36:38;;;;;;;8.23;4.40;;;13.40;99.90;;;;;;4866166;29;20086;-81
2023/04/29 09:39:12;;;;;;;9.70;4.05;;;13.60;99.90;;;;;;4878196;29;20132;-81
2023/04/29 09:41:53;;;;;;;9.77;4.03;;;13.70;99.90;;;;;;4883095;29;20049;-80
2023/04/29 09:44:22;;;;;;;6.35;3.38;;;13.80;99.90;;;;;;4892330;29;20604;-81
2023/04/29 09:46:56;;;;;;;7.88;3.10;;;13.80;99.90;;;;;;4876980;29;20054;-80
2023/04/29 09:49:24;;;;;;;6.03;2.70;;;13.80;99.90;;;;;;4862013;29;20041;-80
2023/04/29 09:52:02;;;;;;;8.65;3.10;;;13.90;99.90;;;;;;4862465;29;20033;-80
2023/04/29 09:54:32;;;;;;;8.40;3.20;;;13.90;99.90;;;;;;4879442;29;20045;-80
2023/04/29 09:56:59;;;;;;;8.38;3.00;;;13.90;99.90;;;;;;4891980;29;20049;-82
2023/04/29 09:59:26;;;;;;;8.18;3.28;;;14.00;99.90;;;;;;4876503;29;20049;-80
2023/04/29 10:01:55;;;;;;;9.27;3.10;;;14.00;99.90;;;;;;4876603;29;20112;-80
2023/04/29 10:04:24;;;;;;;7.22;3.10;;;14.00;99.90;;;;;;4876252;29;20411;-80
2023/04/29 10:06:53;;;;;;;8.88;3.03;;;14.10;99.90;;;;;;4891982;29;20056;-80
2023/04/29 10:09:21;;;;;;;8.27;3.38;;;14.00;99.90;;;;;;4861352;29;20054;-80
2023/04/29 10:11:50;;;;;;;8.07;3.40;;;14.10;99.90;;;;;;4876462;29;20081;-81
2023/04/29 10:14:19;;;;;;;8.38;3.20;;;14.00;99.90;;;;;;4880223;29;20037;-81
2023/04/29 10:16:48;;;;;;;7.40;3.63;;;14.00;99.90;;;;;;4879734;29;20049;-80
2023/04/29 10:19:23;;;;;;;6.32;3.42;;;14.10;99.90;;;;;;4910503;29;20574;-81
2023/04/29 10:21:50;;;;;;;10.07;3.88;;;14.20;99.90;;;;;;4895210;29;20418;-80
2023/04/29 10:24:20;;;;;;;8.52;3.65;;;14.20;99.90;;;;;;4879661;29;20045;-81
2023/04/29 10:26:50;;;;;;;10.35;4.13;;;14.40;99.90;;;;;;4865372;29;20041;-81
2023/04/29 10:29:18;;;;;;;12.02;3.42;;;14.40;99.90;;;;;;4894781;29;20045;-80
2023/04/29 10:31:47;;;;;;;8.57;3.53;;;14.40;99.90;;;;;;4879126;29;20072;-80
2023/04/29 10:34:16;;;;;;;9.50;3.80;;;14.50;99.90;;;;;;4872756;29;20424;-80
2023/04/29 10:36:44;;;;;;;6.45;3.35;;;14.50;99.90;;;;;;4872876;29;20497;-80
2023/04/29 10:39:22;;;;;;;7.50;3.90;;;14.60;99.90;;;;;;4857459;29;20616;-80
2023/04/29 10:41:50;;;;;;;10.38;3.65;;;14.60;99.90;;;;;;4872877;29;20053;-80
2023/04/29 10:44:17;;;;;;;8.98;4.00;;;14.70;99.90;;;;;;4875712;29;20049;-80
2023/04/29 10:46:43;;;;;;;9.02;4.47;;;14.70;99.90;;;;;;4860710;29;20053;-80
2023/04/29 10:49:10;;;;;;;11.02;4.10;;;14.70;99.90;;;;;;4876217;29;20057;-80
2023/04/29 10:51:44;;;;;;;7.05;3.58;;;14.70;99.90;;;;;;4874390;29;20041;-82
2023/04/29 10:54:24;;;;;;;9.25;4.30;;;14.70;99.90;;;;;;4863238;29;20107;-82
2023/04/29 10:56:53;;;;;;;7.38;4.68;;;14.70;99.90;;;;;;4874388;29;20733;-81
2023/04/29 10:59:21;;;;;;;8.93;4.60;;;14.60;99.90;;;;;;4865734;29;20437;-82
2023/04/29 11:01:52;;;;;;;8.65;4.43;;;14.60;99.90;;;;;;4876283;29;20046;-81
2023/04/29 11:04:21;;;;;;;8.60;4.65;;;14.60;99.90;;;;;;4876011;29;20041;-84
2023/04/29 11:06:53;;;;;;;10.95;4.47;;;14.60;99.90;;;;;;4845898;29;20057;-84
2023/04/29 11:09:23;;;;;;;7.25;4.47;;;14.60;99.90;;;;;;4873015;29;20597;-86
2023/04/29 11:12:04;;;;;;;8.95;4.57;;;14.60;99.90;;;;;;4891299;29;20065;-86
2023/04/29 11:14:42;;;;;;;8.18;4.13;;;14.60;99.90;;;;;;4876114;29;20085;-85
2023/04/29 11:17:22;;;;;;;8.25;4.32;;;14.60;99.90;;;;;;4894222;29;20418;-85
2023/04/29 11:19:54;;;;;;;9.45;4.55;;;14.60;99.90;;;;;;4880575;29;20052;-85
2023/04/29 11:22:26;;;;;;;8.50;4.30;;;14.50;99.90;;;;;;4879902;29;20136;-84
2023/04/29 11:25:05;;;;;;;11.23;4.50;;;14.60;99.90;;;;;;4895199;29;20045;-85
2023/04/29 11:27:33;;;;;;;10.02;4.03;;;14.50;99.90;;;;;;4878424;29;20042;-85
2023/04/29 11:30:03;;;;;;;10.38;3.60;;;14.50;99.90;;;;;;4876417;29;20422;-85
2023/04/29 11:32:35;;;;;;;8.82;3.97;;;14.50;99.90;;;;;;4876529;29;20380;-86
2023/04/29 11:35:11;;;;;;;7.70;3.65;;;14.50;99.90;;;;;;4887361;29;20053;-85
2023/04/29 11:37:38;;;;;;;;;;;14.60;99.90;;;;;;4876528;29;20157;-85
2023/04/29 11:40:06;;;;;;;9.00;2.75;;;14.70;99.90;;;;;;4876666;29;19943;-86
2023/04/29 11:42:35;;;;;;;7.22;2.75;;;14.80;99.90;;;;;;4883462;29;20538;-86
2023/04/29 11:45:11;;;;;;;7.57;2.65;;;14.70;99.90;;;;;;4876151;29;20048;-85
2023/04/29 11:47:44;;;;;;;7.00;2.90;;;14.80;99.90;;;;;;4883053;29;20126;-85
2023/04/29 11:50:12;;;;;;;6.30;2.20;;;14.90;99.90;;;;;;4876598;29;20041;-86
2023/04/29 11:52:39;;;;;;;6.57;2.45;;;14.90;99.90;;;;;;4879555;29;20045;-85
2023/04/29 11:55:10;;;;;;;8.68;2.20;;;14.90;99.90;;;;;;4879755;29;20041;-85
2023/04/29 11:57:39;;;;;;;6.18;2.13;;;15.00;99.90;;;;;;4879081;29;20490;-85
2023/04/29 12:00:13;;;;;;;6.75;2.47;;;14.90;99.90;;;;;;4879471;29;20129;-85
2023/04/29 12:02:44;;;;;;;5.65;2.10;;;15.00;99.90;;;;;;4879126;29;20410;-85
2023/04/29 12:05:11;;;;;;;9.18;2.40;;;15.00;99.90;;;;;;4864340;29;20057;-86
2023/04/29 12:07:38;;;;;;;4.97;2.55;;;15.10;99.90;;;;;;4848858;29;20051;-82
2023/04/29 12:10:09;;;;;;;9.73;2.80;;;15.00;99.90;;;;;;4854664;29;20048;-87
2023/04/29 12:12:39;;;;;;;6.47;2.72;;;14.90;99.90;;;;;;4888431;29;20491;-81
2023/04/29 12:15:08;;;;;;;6.03;2.65;;;14.90;99.90;;;;;;4898551;29;20140;-85
2023/04/29 12:17:35;;;;;;;8.05;2.83;;;14.90;99.90;;;;;;4910512;29;20124;-86
2023/04/29 12:20:02;;;;;;;6.57;2.47;;;15.00;99.90;;;;;;4879939;29;20072;-86
2023/04/29 12:22:32;;;;;;;5.07;2.42;;;14.90;99.90;;;;;;4864399;29;20067;-87
2023/04/29 12:25:01;;;;;;;12.63;2.58;;;14.90;99.90;;;;;;4893356;29;20041;-89
2023/04/29 12:27:29;;;;;;;8.98;2.42;;;14.90;99.90;;;;;;4898568;29;20044;-88
2023/04/29 12:29:56;;;;;;;7.70;2.70;;;15.00;99.90;;;;;;4877940;29;20080;-88
2023/04/29 12:32:24;;;;;;;7.00;2.80;;;14.90;99.90;;;;;;4874862;29;20517;-88
2023/04/29 12:34:51;;;;;;;7.28;2.80;;;14.90;99.90;;;;;;4889394;29;20048;-88
2023/04/29 12:37:20;;;;;;;6.13;2.70;;;14.90;99.90;;;;;;4879668;29;20072;-89
2023/04/29 12:39:49;;;;;;;6.85;2.85;;;14.80;99.90;;;;;;4900483;29;20462;-87
2023/04/29 12:42:16;;;;;;;8.93;2.80;;;14.80;99.90;;;;;;4889091;29;20036;-87
2023/04/29 12:44:47;;;;;;;6.85;3.05;;;14.70;99.90;;;;;;4894394;29;20113;-85
2023/04/29 12:47:15;;;;;;;5.28;2.75;;;14.80;99.90;;;;;;4903329;29;20427;-85